Time;durP1;ratioP1;P1;durP2;ratioP2;P2;SDS_P1;SDS_P2;PMS_P1;PMS_P2;Temp;Humidity;BMP_temperature;BMP_pressure;BME280_temperature;BME280_humidity;BME280_pressure;Samples;Min_cycle;Max_cycle;Signal;HPM_P1;HPM_P2
2023/03/06 11:07:58;;;;;;;;;;;;;;;5.40;58.75;98967.38;1085870;54;19953;-80
2023/03/06 11:09:18;;;;;;;;;;;;;;;5.38;58.69;98964.03;1086482;54;19951;-76
2023/03/06 11:10:22;;;;;;;;;;;;;;;5.46;58.20;98965.03;1086899;54;19943;-78
2023/03/06 11:11:26;;;;;;;;;;;;;;;5.44;58.16;98964.31;1086555;54;19958;-79
2023/03/06 11:12:28;;;;;;;;;;;;;;;5.24;58.11;98959.97;1086562;54;20417;-78
2023/03/06 11:13:32;;;;;;;;;;;;;;;5.41;58.54;98967.22;1086340;54;19950;-79
2023/03/06 11:14:36;;;;;;;;;;;;;;;5.54;58.38;98963.47;1086011;54;19973;-82
2023/03/06 11:15:40;;;;;;;;;;;;;;;5.38;58.21;98958.72;1085954;54;19946;-80
2023/03/06 11:16:51;;;;;;;;;;;;;;;5.52;58.62;98960.13;1086348;54;20536;-80
2023/03/06 11:17:58;;;;;;;;;;;;;;;5.47;58.22;98961.41;1085655;54;19949;-79
2023/03/06 11:19:04;;;;;;;;;;;;;;;5.51;58.03;98961.09;1085450;54;20700;-79
2023/03/06 11:20:17;;;;;;;;;;;;;;;5.31;58.24;98961.06;1085862;54;19998;-80
2023/03/06 11:21:29;;;;;;;;;;;;;;;5.35;58.24;98957.19;1086013;54;19957;-80
2023/03/06 11:22:30;;;;;;;;;;;;;;;5.39;57.76;98957.75;1085846;39;20680;-80
2023/03/06 11:23:45;;;;;;;;;;;;;;;5.54;57.63;98956.34;1086027;46;19947;-78
2023/03/06 11:24:50;;;;;;;;;;;;;;;5.50;57.72;98949.66;1085911;54;19947;-80
2023/03/06 11:25:55;;;;;;;;;;;;;;;5.64;57.42;98951.06;1085854;54;20532;-79
2023/03/06 11:27:01;;;;;;;;;;;;;;;5.49;57.62;98953.28;1085704;54;19958;-80
2023/03/06 11:28:07;;;;;;;;;;;;;;;5.60;57.33;98957.63;1086090;54;19946;-78
2023/03/06 11:29:20;;;;;;;;;;;;;;;5.55;57.24;98957.22;1085982;54;19950;-80
2023/03/06 11:30:23;;;;;;;;;;;;;;;5.50;57.05;98948.81;1086069;54;19954;-79
2023/03/06 11:31:29;;;;;;;;;;;;;;;5.54;57.18;98952.88;1086080;54;19950;-79
2023/03/06 11:32:32;;;;;;;;;;;;;;;5.48;57.41;98951.63;1086482;39;20451;-80
2023/03/06 11:33:38;;;;;;;;;;;;;;;5.56;57.18;98950.94;1086581;39;20385;-79
2023/03/06 11:34:43;;;;;;;;;;;;;;;5.45;57.84;98941.28;1085707;54;19950;-80
2023/03/06 11:35:57;;;;;;;;;;;;;;;5.54;57.62;98944.91;1086298;54;19951;-80
2023/03/06 11:37:02;;;;;;;;;;;;;;;5.56;58.08;98953.59;1088025;54;19938;-79
2023/03/06 11:38:15;;;;;;;;;;;;;;;5.73;57.49;98952.03;1091153;46;20006;-78
2023/03/06 11:39:23;;;;;;;;;;;;;;;5.69;56.94;98937.38;1088081;54;19942;-79
2023/03/06 11:40:32;;;;;;;;;;;;;;;5.79;57.15;98943.53;1088111;47;19942;-78
2023/03/06 11:41:45;;;;;;;;;;;;;;;5.73;56.33;98938.75;1087843;54;19950;-79
2023/03/06 11:42:54;;;;;;;;;;;;;;;5.76;56.35;98930.53;1087711;46;20422;-79
2023/03/06 11:43:59;;;;;;;;;;;;;;;5.88;56.56;98933.88;1087354;54;19950;-78
2023/03/06 11:45:20;;;;;;;;;;;;;;;5.92;56.00;98929.97;1085726;54;19957;-79
2023/03/06 11:46:23;;;;;;;;;;;;;;;5.88;56.21;98936.50;1084408;54;19951;-79
2023/03/06 11:47:30;;;;;;;;;;;;;;;5.95;55.51;98932.34;1084418;54;19977;-79
2023/03/06 11:48:36;;;;;;;;;;;;;;;6.06;55.52;98928.72;1085830;39;20667;-78
2023/03/06 11:49:39;;;;;;;;;;;;;;;6.03;55.47;98931.63;1084245;54;19946;-79
2023/03/06 11:50:44;;;;;;;;;;;;;;;6.02;55.24;98924.66;1084209;54;20554;-79
2023/03/06 11:51:51;;;;;;;;;;;;;;;6.07;55.17;98923.25;1084469;54;19973;-78
2023/03/06 11:52:54;;;;;;;;;;;;;;;5.92;55.54;98922.00;1084016;54;19946;-78
2023/03/06 11:54:00;;;;;;;;;;;;;;;5.87;55.35;98924.22;1084011;54;19993;-79
2023/03/06 11:55:03;;;;;;;;;;;;;;;5.89;55.73;98923.13;1083999;54;19950;-79
2023/03/06 11:56:16;;;;;;;;;;;;;;;5.89;55.56;98923.13;1084054;54;19951;-78
2023/03/06 11:57:22;;;;;;;;;;;;;;;5.86;55.33;98922.56;1084040;54;19947;-78
2023/03/06 11:58:43;;;;;;;;;;;;;;;5.80;55.90;98923.13;1084316;54;19951;-78
2023/03/06 12:00:08;;;;;;;;;;;;;;;5.92;55.63;98911.38;1084393;46;19946;-78
2023/03/06 12:01:13;;;;;;;;;;;;;;;5.96;55.27;98912.75;1083903;39;20861;-78
2023/03/06 12:02:23;;;;;;;;;;;;;;;5.93;54.95;98915.72;1083789;54;19946;-78
2023/03/06 12:03:43;;;;;;;;;;;;;;;5.97;55.37;98916.28;1083536;54;19982;-79
2023/03/06 12:04:54;;;;;;;;;;;;;;;6.11;55.00;98909.69;1083411;54;20592;-81
2023/03/06 12:06:02;;;;;;;;;;;;;;;6.04;54.47;98907.63;1083651;54;19984;-77
2023/03/06 12:07:12;;;;;;;;;;;;;;;5.95;54.49;98911.13;1083845;54;19969;-79
2023/03/06 12:08:23;;;;;;;;;;;;;;;6.01;54.57;98899.94;1084120;54;19946;-79
2023/03/06 12:09:30;;;;;;;;;;;;;;;6.03;54.74;98898.00;1085298;39;20417;-80
2023/03/06 12:10:40;;;;;;;;;;;;;;;6.11;54.27;98902.56;1084461;54;20426;-79
2023/03/06 12:11:48;;;;;;;;;;;;;;;5.96;54.55;98904.81;1084438;54;19956;-79
2023/03/06 12:13:07;;;;;;;;;;;;;;;6.04;54.06;98902.31;1084127;54;19958;-78
2023/03/06 12:14:19;;;;;;;;;;;;;;;6.17;54.50;98901.16;1084197;54;19977;-79
2023/03/06 12:15:29;;;;;;;;;;;;;;;6.20;53.76;98900.88;1084491;54;20520;-79
2023/03/06 12:16:50;;;;;;;;;;;;;;;6.11;53.84;98901.75;1084407;54;19981;-79
2023/03/06 12:18:09;;;;;;;;;;;;;;;6.07;53.56;98899.38;1084107;54;19950;-80
2023/03/06 12:19:19;;;;;;;;;;;;;;;6.02;54.17;98896.31;1083894;54;19981;-79
2023/03/06 12:20:34;;;;;;;;;;;;;;;5.91;54.49;98899.09;1084037;54;19977;-79
2023/03/06 12:21:45;;;;;;;;;;;;;;;6.06;54.45;98888.91;1084027;54;19947;-79
2023/03/06 12:22:49;;;;;;;;;;;;;;;6.22;54.47;98896.28;1084026;54;20014;-79
2023/03/06 12:24:05;;;;;;;;;;;;;;;6.30;53.60;98888.41;1083938;54;19946;-80
2023/03/06 12:25:20;;;;;;;;;;;;;;;6.29;53.69;98888.53;1083884;54;21020;-79
2023/03/06 12:26:37;;;;;;;;;;;;;;;6.20;53.66;98888.44;1083799;54;19953;-80
2023/03/06 12:27:45;;;;;;;;;;;;;;;6.22;53.73;98896.28;1084107;54;19986;-80
2023/03/06 12:28:58;;;;;;;;;;;;;;;6.06;53.33;98892.38;1083908;54;20077;-79
2023/03/06 12:30:10;;;;;;;;;;;;;;;6.09;53.36;98883.31;1084108;54;19977;-79
2023/03/06 12:31:18;;;;;;;;;;;;;;;5.92;53.95;98888.34;1084434;39;20452;-80
2023/03/06 12:32:28;;;;;;;;;;;;;;;5.88;54.63;98894.94;1083961;54;19957;-80
2023/03/06 12:33:39;;;;;;;;;;;;;;;5.98;54.56;98886.94;1084246;54;19973;-79
2023/03/06 12:34:49;;;;;;;;;;;;;;;6.14;54.46;98880.22;1085038;39;20735;-79
2023/03/06 12:36:01;;;;;;;;;;;;;;;6.20;54.06;98890.25;1084748;54;20818;-79
2023/03/06 12:37:10;;;;;;;;;;;;;;;6.04;54.33;98886.41;1086104;54;19950;-79
2023/03/06 12:38:24;;;;;;;;;;;;;;;5.96;54.78;98890.72;1085095;54;19946;-79
2023/03/06 12:39:33;;;;;;;;;;;;;;;6.02;54.74;98885.72;1084453;54;19954;-80
2023/03/06 12:40:41;;;;;;;;;;;;;;;6.02;54.54;98888.38;1084374;54;19969;-79
2023/03/06 12:41:56;;;;;;;;;;;;;;;5.91;54.25;98880.53;1084803;54;19947;-79
2023/03/06 12:43:11;;;;;;;;;;;;;;;6.14;54.30;98888.19;1085410;54;19973;-79
2023/03/06 12:44:28;;;;;;;;;;;;;;;5.99;54.17;98880.69;1085659;39;20428;-79
2023/03/06 12:45:33;;;;;;;;;;;;;;;5.74;54.58;98882.09;1086322;54;19953;-78
2023/03/06 12:46:36;;;;;;;;;;;;;;;5.90;54.30;98881.50;1088230;47;19936;-79
2023/03/06 12:47:42;;;;;;;;;;;;;;;5.91;54.45;98878.72;1087455;54;19946;-79
2023/03/06 12:48:47;;;;;;;;;;;;;;;5.91;54.46;98883.19;1087523;47;19927;-79
2023/03/06 12:49:54;;;;;;;;;;;;;;;6.09;54.50;98884.16;1087528;54;19972;-79
2023/03/06 12:50:55;;;;;;;;;;;;;;;6.03;53.87;98881.22;1087716;47;19946;-78
2023/03/06 12:52:02;;;;;;;;;;;;;;;6.09;54.21;98892.09;1087585;54;19947;-78
2023/03/06 12:53:07;;;;;;;;;;;;;;;6.19;53.78;98880.63;1087439;54;19931;-78
2023/03/06 12:54:10;;;;;;;;;;;;;;;6.19;54.28;98891.25;1087973;47;19943;-79
2023/03/06 12:55:18;;;;;;;;;;;;;;;5.97;54.74;98879.94;1087512;54;19939;-79
2023/03/06 12:56:20;;;;;;;;;;;;;;;6.09;54.77;98885.97;1087498;47;19954;-79
2023/03/06 12:57:36;;;;;;;;;;;;;;;5.93;54.72;98883.88;1087795;54;19946;-80
2023/03/06 12:58:48;;;;;;;;;;;;;;;6.03;55.08;98884.72;1087474;47;19947;-79
2023/03/06 12:59:52;;;;;;;;;;;;;;;5.93;55.17;98881.22;1086858;54;19950;-79
2023/03/06 13:00:58;;;;;;;;;;;;;;;5.82;55.35;98881.41;1086560;54;19951;-79
2023/03/06 13:02:19;;;;;;;;;;;;;;;5.66;55.78;98881.97;1086468;54;20002;-78
2023/03/06 13:03:26;;;;;;;;;;;;;;;5.72;55.87;98871.63;1086035;54;20054;-78
2023/03/06 13:04:57;;;;;;;;;;;;;;;5.67;55.94;98876.50;1085918;54;19958;-80
2023/03/06 13:06:10;;;;;;;;;;;;;;;5.76;55.73;98880.16;1083928;54;19946;-79
2023/03/06 13:07:21;;;;;;;;;;;;;;;5.67;55.39;98881.81;1083949;54;19977;-78
2023/03/06 13:08:43;;;;;;;;;;;;;;;5.66;55.50;98885.47;1083675;54;19947;-78
2023/03/06 13:09:55;;;;;;;;;;;;;;;5.70;55.16;98878.91;1083844;54;19973;-78
2023/03/06 13:11:08;;;;;;;;;;;;;;;5.71;54.56;98880.56;1084070;54;19950;-79
2023/03/06 13:12:19;;;;;;;;;;;;;;;5.69;54.50;98887.81;1084032;54;19973;-79
2023/03/06 13:13:34;;;;;;;;;;;;;;;5.70;54.60;98876.25;1083987;54;19946;-78
2023/03/06 13:14:52;;;;;;;;;;;;;;;5.74;54.57;98871.50;1083767;54;20509;-79
2023/03/06 13:16:11;;;;;;;;;;;;;;;5.59;54.85;98882.56;1083923;54;19977;-78
2023/03/06 13:17:27;;;;;;;;;;;;;;;5.68;54.87;98875.53;1084544;54;19950;-78
2023/03/06 13:18:58;;;;;;;;;;;;;;;5.71;55.03;98877.91;1084583;54;19977;-79
2023/03/06 13:20:19;;;;;;;;;;;;;;;5.67;55.52;98873.88;1084383;54;19954;-79
2023/03/06 13:21:35;;;;;;;;;;;;;;;5.79;55.29;98871.91;1084283;54;19957;-79
2023/03/06 13:22:38;;;;;;;;;;;;;;;5.90;54.74;98873.56;1084151;54;19978;-78
2023/03/06 13:23:48;;;;;;;;;;;;;;;5.88;54.85;98872.84;1083885;54;19969;-79
2023/03/06 13:25:12;;;;;;;;;;;;;;;5.85;54.90;98875.81;1084134;54;19950;-78
2023/03/06 13:26:27;;;;;;;;;;;;;;;5.69;54.99;98873.75;1083875;54;20788;-79
2023/03/06 13:27:46;;;;;;;;;;;;;;;5.90;54.29;98871.72;1083831;54;19947;-79
2023/03/06 13:28:53;;;;;;;;;;;;;;;5.90;54.35;98876.22;1083927;54;19946;-79
2023/03/06 13:30:03;;;;;;;;;;;;;;;5.68;54.36;98867.59;1083928;54;19947;-79
2023/03/06 13:31:07;;;;;;;;;;;;;;;5.76;54.70;98874.84;1083931;54;19958;-79
2023/03/06 13:32:15;;;;;;;;;;;;;;;5.81;54.39;98872.59;1084047;54;19950;-78
2023/03/06 13:33:42;;;;;;;;;;;;;;;5.63;54.67;98870.66;1084202;54;19946;-78
2023/03/06 13:34:45;;;;;;;;;;;;;;;5.73;54.77;98870.66;1083414;54;19950;-79
2023/03/06 13:35:52;;;;;;;;;;;;;;;5.53;54.94;98880.44;1083750;54;20707;-79
2023/03/06 13:37:16;;;;;;;;;;;;;;;5.50;55.39;98866.63;1083945;39;20813;-78
2023/03/06 13:38:34;;;;;;;;;;;;;;;5.66;55.27;98868.72;1083348;54;20457;-78
2023/03/06 13:39:53;;;;;;;;;;;;;;;5.65;54.84;98862.59;1083182;54;19950;-79
2023/03/06 13:41:20;;;;;;;;;;;;;;;5.61;54.90;98866.50;1083544;54;19951;-78
2023/03/06 13:42:28;;;;;;;;;;;;;;;5.76;54.90;98865.06;1084250;39;20377;-79
2023/03/06 13:43:29;;;;;;;;;;;;;;;5.72;54.55;98858.38;1083455;54;19951;-79
2023/03/06 13:44:47;;;;;;;;;;;;;;;5.73;54.87;98870.66;1083560;54;19973;-79
2023/03/06 13:45:51;;;;;;;;;;;;;;;5.74;54.71;98875.00;1083606;54;19964;-78
2023/03/06 13:46:56;;;;;;;;;;;;;;;5.84;54.39;98863.53;1083927;54;19950;-78
2023/03/06 13:48:00;;;;;;;;;;;;;;;5.94;54.57;98864.34;1086540;54;19967;-78
2023/03/06 13:49:03;;;;;;;;;;;;;;;5.91;54.39;98869.94;1086520;46;19946;-79
2023/03/06 13:50:15;;;;;;;;;;;;;;;5.89;54.74;98862.13;1084686;54;19954;-78
2023/03/06 13:51:25;;;;;;;;;;;;;;;5.92;54.70;98864.47;1085683;54;19955;-79
2023/03/06 13:52:33;;;;;;;;;;;;;;;5.90;54.51;98862.94;1086127;54;19951;-78
2023/03/06 13:53:50;;;;;;;;;;;;;;;5.97;54.45;98858.72;1087062;54;20316;-80
2023/03/06 13:54:56;;;;;;;;;;;;;;;5.83;54.38;98864.50;1086295;54;19958;-78
2023/03/06 13:56:05;;;;;;;;;;;;;;;5.83;54.52;98859.19;1086733;54;19942;-78
2023/03/06 13:57:17;;;;;;;;;;;;;;;5.70;55.03;98860.34;1087265;54;19943;-78
2023/03/06 13:58:30;;;;;;;;;;;;;;;5.86;54.92;98859.75;1086591;54;19990;-78
2023/03/06 13:59:47;;;;;;;;;;;;;;;5.83;54.63;98860.03;1086147;54;19960;-78
2023/03/06 14:01:01;;;;;;;;;;;;;;;5.86;54.70;98856.25;1087029;46;20008;-78
2023/03/06 14:02:12;;;;;;;;;;;;;;;5.69;54.48;98860.47;1084612;46;19946;-79
2023/03/06 14:03:28;;;;;;;;;;;;;;;5.73;54.84;98857.41;1083781;54;19951;-78
2023/03/06 14:04:38;;;;;;;;;;;;;;;5.70;54.77;98857.69;1084140;54;19950;-78
2023/03/06 14:05:45;;;;;;;;;;;;;;;5.63;54.93;98856.59;1084272;54;19972;-78
2023/03/06 14:06:51;;;;;;;;;;;;;;;5.53;55.33;98861.06;1084077;54;19973;-79
2023/03/06 14:08:05;;;;;;;;;;;;;;;5.55;55.29;98859.13;1084858;54;19962;-79
2023/03/06 14:09:10;;;;;;;;;;;;;;;5.56;55.46;98860.78;1084778;54;20526;-80
2023/03/06 14:10:22;;;;;;;;;;;;;;;5.67;54.89;98852.66;1084173;54;19958;-79
2023/03/06 14:11:23;;;;;;;;;;;;;;;5.81;54.79;98850.53;1084270;54;19951;-79
2023/03/06 14:12:30;;;;;;;;;;;;;;;5.91;54.63;98856.66;1084165;54;19950;-79
2023/03/06 14:13:36;;;;;;;;;;;;;;;5.92;54.37;98847.72;1084484;54;19978;-80
2023/03/06 14:14:41;;;;;;;;;;;;;;;6.04;54.44;98849.25;1084807;54;19946;-80
2023/03/06 14:15:46;;;;;;;;;;;;;;;6.00;54.71;98852.34;1085234;54;19973;-79
2023/03/06 14:16:50;;;;;;;;;;;;;;;5.75;55.18;98852.81;1084755;54;19973;-79
2023/03/06 14:17:59;;;;;;;;;;;;;;;5.67;55.24;98844.69;1085171;54;19958;-79
2023/03/06 14:19:03;;;;;;;;;;;;;;;5.60;55.63;98851.56;1085086;54;19947;-79
2023/03/06 14:20:14;;;;;;;;;;;;;;;5.60;56.08;98848.91;1085408;54;20476;-79
2023/03/06 14:21:26;;;;;;;;;;;;;;;5.67;56.15;98847.34;1086224;46;19958;-78
2023/03/06 14:22:30;;;;;;;;;;;;;;;5.82;55.97;98852.22;1086029;54;19942;-79
2023/03/06 14:23:36;;;;;;;;;;;;;;;5.80;56.59;98848.88;1084193;54;19946;-79
2023/03/06 14:24:40;;;;;;;;;;;;;;;5.78;56.87;98849.84;1083934;54;19946;-78
2023/03/06 14:25:46;;;;;;;;;;;;;;;5.65;57.13;98844.03;1084163;54;19947;-79
2023/03/06 14:26:48;;;;;;;;;;;;;;;5.68;56.85;98842.91;1083914;54;19973;-79
2023/03/06 14:27:53;;;;;;;;;;;;;;;5.85;56.90;98844.81;1083484;54;19951;-78
2023/03/06 14:28:58;;;;;;;;;;;;;;;5.82;56.90;98841.59;1084005;54;19958;-79
2023/03/06 14:30:04;;;;;;;;;;;;;;;5.79;57.05;98840.09;1084152;54;19946;-79
2023/03/06 14:31:08;;;;;;;;;;;;;;;5.73;57.21;98841.50;1084257;54;19973;-78
2023/03/06 14:32:13;;;;;;;;;;;;;;;5.65;57.47;98838.72;1083807;54;19950;-78
2023/03/06 14:33:25;;;;;;;;;;;;;;;5.72;57.16;98847.78;1084641;39;20337;-79
2023/03/06 14:34:30;;;;;;;;;;;;;;;5.86;56.78;98837.66;1083667;54;19969;-78
2023/03/06 14:35:33;;;;;;;;;;;;;;;5.82;57.15;98842.44;1084161;39;20468;-79
2023/03/06 14:36:38;;;;;;;;;;;;;;;5.83;57.33;98832.69;1083744;54;19947;-79
2023/03/06 14:37:39;;;;;;;;;;;;;;;5.85;57.37;98836.84;1083656;54;20045;-78
2023/03/06 14:38:45;;;;;;;;;;;;;;;5.79;57.85;98842.75;1083515;54;19946;-79
2023/03/06 14:39:46;;;;;;;;;;;;;;;5.90;57.64;98842.53;1083379;54;19947;-79
2023/03/06 14:40:51;;;;;;;;;;;;;;;5.87;57.98;98839.34;1083582;54;19968;-78
2023/03/06 14:42:06;;;;;;;;;;;;;;;6.01;57.88;98838.06;1084094;54;19950;-79
2023/03/06 14:43:10;;;;;;;;;;;;;;;5.87;58.27;98834.91;1083893;54;19950;-79
2023/03/06 14:44:18;;;;;;;;;;;;;;;5.85;58.43;98830.72;1084217;54;19969;-79
2023/03/06 14:45:20;;;;;;;;;;;;;;;5.59;59.00;98833.97;1083820;54;19946;-79
2023/03/06 14:46:25;;;;;;;;;;;;;;;5.55;59.06;98829.94;1083821;54;19982;-79
2023/03/06 14:47:30;;;;;;;;;;;;;;;5.54;59.55;98833.56;1084376;54;19946;-79
2023/03/06 14:48:42;;;;;;;;;;;;;;;5.65;59.08;98835.22;1084668;54;19950;-79
2023/03/06 14:49:52;;;;;;;;;;;;;;;5.49;59.24;98839.31;1084525;54;19992;-79
2023/03/06 14:50:58;;;;;;;;;;;;;;;5.35;59.94;98837.06;1083397;54;19950;-79
2023/03/06 14:52:03;;;;;;;;;;;;;;;5.40;59.92;98833.03;1084073;54;19989;-79
2023/03/06 14:53:13;;;;;;;;;;;;;;;5.29;60.52;98835.84;1084580;54;19972;-79
2023/03/06 14:54:20;;;;;;;;;;;;;;;5.32;60.47;98830.25;1084688;54;19973;-79
2023/03/06 14:55:26;;;;;;;;;;;;;;;5.39;60.45;98827.88;1085012;39;20289;-80
2023/03/06 14:56:30;;;;;;;;;;;;;;;5.52;60.12;98838.19;1084478;54;19950;-80
2023/03/06 14:57:32;;;;;;;;;;;;;;;5.50;60.46;98829.53;1085213;54;19974;-79
2023/03/06 14:58:38;;;;;;;;;;;;;;;5.41;60.53;98829.41;1084828;54;19950;-77
2023/03/06 14:59:43;;;;;;;;;;;;;;;5.30;60.84;98832.19;1085239;39;20360;-79
2023/03/06 15:00:48;;;;;;;;;;;;;;;5.29;61.32;98833.19;1084620;54;19947;-79
2023/03/06 15:01:53;;;;;;;;;;;;;;;5.29;61.19;98836.66;1084564;54;19954;-79
2023/03/06 15:02:57;;;;;;;;;;;;;;;5.21;61.30;98830.38;1085008;54;19950;-79
2023/03/06 15:04:01;;;;;;;;;;;;;;;5.21;61.55;98833.88;1084199;54;20433;-79
2023/03/06 15:05:05;;;;;;;;;;;;;;;5.23;61.67;98836.38;1084107;54;19981;-79
2023/03/06 15:06:10;;;;;;;;;;;;;;;5.26;61.53;98836.94;1084104;54;19957;-78
2023/03/06 15:07:16;;;;;;;;;;;;;;;5.26;61.48;98836.13;1083910;54;19957;-79
2023/03/06 15:08:18;;;;;;;;;;;;;;;5.30;61.54;98829.53;1083429;54;19957;-78
2023/03/06 15:09:25;;;;;;;;;;;;;;;5.32;61.55;98830.25;1084259;54;19969;-79
2023/03/06 15:10:27;;;;;;;;;;;;;;;5.46;61.19;98823.66;1084310;54;19946;-79
2023/03/06 15:11:46;;;;;;;;;;;;;;;5.53;61.15;98826.59;1084322;54;19968;-78
2023/03/06 15:12:50;;;;;;;;;;;;;;;5.53;61.03;98827.41;1084653;54;19950;-78
2023/03/06 15:14:03;;;;;;;;;;;;;;;5.42;61.85;98824.94;1086297;39;20082;-78
2023/03/06 15:15:27;;;;;;;;;;;;;;;5.35;61.58;98834.41;1084844;54;20511;-79
2023/03/06 15:16:31;;;;;;;;;;;;;;;5.44;61.49;98830.91;1085696;39;20632;-78
2023/03/06 15:17:37;;;;;;;;;;;;;;;5.49;61.17;98834.00;1084492;54;19954;-79
2023/03/06 15:18:55;;;;;;;;;;;;;;;5.65;60.79;98830.78;1084523;54;19947;-79
2023/03/06 15:19:57;;;;;;;;;;;;;;;5.68;60.61;98835.75;1084184;54;19951;-79
2023/03/06 15:21:08;;;;;;;;;;;;;;;5.78;60.32;98833.94;1085204;39;20361;-81
2023/03/06 15:22:20;;;;;;;;;;;;;;;5.61;60.39;98830.22;1084536;54;19985;-79
2023/03/06 15:23:27;;;;;;;;;;;;;;;5.72;60.34;98831.88;1085111;54;20057;-78
2023/03/06 15:24:31;;;;;;;;;;;;;;;5.66;60.52;98827.16;1085835;39;20459;-79
2023/03/06 15:25:34;;;;;;;;;;;;;;;5.62;60.23;98829.22;1085184;54;19950;-79
2023/03/06 15:26:38;;;;;;;;;;;;;;;5.45;60.23;98830.81;1085591;54;19950;-80
2023/03/06 15:27:39;;;;;;;;;;;;;;;5.35;60.40;98832.63;1085095;54;19951;-79
2023/03/06 15:28:43;;;;;;;;;;;;;;;5.33;60.14;98831.91;1084705;47;19946;-79
2023/03/06 15:29:45;;;;;;;;;;;;;;;5.39;60.08;98825.22;1084105;54;19946;-79
2023/03/06 15:31:02;;;;;;;;;;;;;;;5.51;59.74;98833.84;1086335;54;20562;-82
2023/03/06 15:32:15;;;;;;;;;;;;;;;5.50;59.80;98830.38;1087715;54;19926;-80
2023/03/06 15:33:22;;;;;;;;;;;;;;;5.47;59.77;98828.00;1084824;54;19952;-78
2023/03/06 15:34:28;;;;;;;;;;;;;;;5.36;60.02;98844.03;1086606;54;20611;-80
2023/03/06 15:35:31;;;;;;;;;;;;;;;5.21;60.61;98830.38;1089023;39;20191;-79
2023/03/06 15:36:38;;;;;;;;;;;;;;;5.37;60.15;98837.78;1086003;54;19962;-82
2023/03/06 15:37:42;;;;;;;;;;;;;;;5.51;59.85;98834.69;1087374;54;19949;-79
2023/03/06 15:38:55;;;;;;;;;;;;;;;5.39;60.05;98836.66;1086569;54;19946;-80
2023/03/06 15:40:08;;;;;;;;;;;;;;;5.44;59.66;98833.56;1085216;54;20005;-81
2023/03/06 15:41:22;;;;;;;;;;;;;;;5.24;59.95;98832.75;1086178;54;19998;-80
2023/03/06 15:42:27;;;;;;;;;;;;;;;5.34;59.90;98833.59;1086467;54;19966;-79
2023/03/06 15:43:31;;;;;;;;;;;;;;;5.41;59.88;98840.00;1087357;54;19961;-79
2023/03/06 15:44:43;;;;;;;;;;;;;;;5.40;59.63;98827.72;1087432;54;20011;-84
2023/03/06 15:45:47;;;;;;;;;;;;;;;5.33;59.94;98831.09;1086608;54;19947;-82
2023/03/06 15:46:49;;;;;;;;;;;;;;;5.29;59.56;98834.03;1087196;54;19939;-82
2023/03/06 15:47:57;;;;;;;;;;;;;;;5.22;59.62;98835.56;1086659;54;19951;-82
2023/03/06 15:49:01;;;;;;;;;;;;;;;5.20;60.18;98831.34;1086682;54;19950;-79
2023/03/06 15:50:14;;;;;;;;;;;;;;;5.19;59.91;98840.31;1086402;54;19943;-79
2023/03/06 16:38:14;;;;;;;;;;;;;;;4.59;64.29;98839.38;1087300;54;19942;-80
2023/03/06 16:39:18;;;;;;;;;;;;;;;4.67;64.23;98846.66;1087722;54;19945;-82
2023/03/06 16:40:25;;;;;;;;;;;;;;;4.70;64.20;98841.09;1087964;54;19958;-83
2023/03/06 16:41:29;;;;;;;;;;;;;;;4.84;63.67;98842.53;1088194;54;19942;-82
2023/03/06 16:42:31;;;;;;;;;;;;;;;4.76;64.08;98840.53;1087682;54;19946;-82
2023/03/06 16:43:34;;;;;;;;;;;;;;;4.77;63.92;98847.53;1087953;54;19949;-82
2023/03/06 16:44:37;;;;;;;;;;;;;;;4.83;63.76;98846.97;1087780;54;19942;-81
2023/03/06 16:45:41;;;;;;;;;;;;;;;4.90;63.55;98841.97;1087852;54;20711;-82
2023/03/06 16:46:48;;;;;;;;;;;;;;;4.82;63.83;98840.00;1088736;39;20474;-81
2023/03/06 16:47:50;;;;;;;;;;;;;;;4.82;63.86;98839.16;1087778;54;19942;-82
2023/03/06 16:48:54;;;;;;;;;;;;;;;4.84;63.78;98853.09;1087650;54;20820;-82
2023/03/06 16:49:56;;;;;;;;;;;;;;;4.86;63.83;98848.53;1087781;54;19950;-82
2023/03/06 16:51:00;;;;;;;;;;;;;;;4.86;63.79;98852.97;1087662;54;19946;-81
2023/03/06 16:52:03;;;;;;;;;;;;;;;4.92;63.81;98852.41;1087621;54;19966;-80
2023/03/06 16:53:07;;;;;;;;;;;;;;;4.83;64.00;98852.25;1085667;54;19950;-82
2023/03/06 16:54:13;;;;;;;;;;;;;;;4.77;63.97;98852.81;1084225;54;19969;-80
2023/03/06 16:55:14;;;;;;;;;;;;;;;4.67;64.22;98858.09;1084562;54;19955;-79
2023/03/06 16:56:19;;;;;;;;;;;;;;;4.72;64.08;98848.91;1085215;39;20443;-80
2023/03/06 16:57:20;;;;;;;;;;;;;;;4.61;64.57;98853.34;1084816;54;20477;-80
2023/03/06 16:58:24;;;;;;;;;;;;;;;4.65;64.39;98854.75;1084556;54;19947;-80
2023/03/06 16:59:28;;;;;;;;;;;;;;;4.67;64.29;98851.97;1084101;54;19966;-80
2023/03/06 17:00:31;;;;;;;;;;;;;;;4.66;64.43;98852.94;1084439;54;19969;-80
2023/03/06 17:01:35;;;;;;;;;;;;;;;4.61;64.61;98857.81;1084484;54;19970;-80
2023/03/06 17:02:37;;;;;;;;;;;;;;;4.62;64.82;98857.66;1084013;54;19951;-80
2023/03/06 17:03:41;;;;;;;;;;;;;;;4.60;64.74;98850.84;1087036;54;19954;-78
2023/03/06 17:04:44;;;;;;;;;;;;;;;4.66;64.77;98860.88;1086827;54;19947;-80
2023/03/06 17:05:45;;;;;;;;;;;;;;;4.61;64.97;98863.91;1087697;39;20455;-82
2023/03/06 17:06:51;;;;;;;;;;;;;;;4.72;64.66;98863.00;1086563;54;19947;-82
2023/03/06 17:07:52;;;;;;;;;;;;;;;4.72;64.67;98862.13;1087274;31;20444;-81
2023/03/06 17:08:56;;;;;;;;;;;;;;;4.67;64.63;98862.53;1086987;54;19996;-83
2023/03/06 17:10:04;;;;;;;;;;;;;;;4.72;64.92;98860.34;1087660;54;19951;-81
2023/03/06 17:11:05;;;;;;;;;;;;;;;4.66;64.98;98866.16;1087771;54;19937;-82
2023/03/06 17:12:10;;;;;;;;;;;;;;;4.65;64.78;98865.34;1087822;54;19949;-81
2023/03/06 17:13:12;;;;;;;;;;;;;;;4.60;64.96;98861.41;1087887;54;19973;-81
2023/03/06 17:14:16;;;;;;;;;;;;;;;4.57;64.89;98862.53;1087680;54;19951;-81
2023/03/06 17:15:17;;;;;;;;;;;;;;;4.63;64.90;98869.09;1087676;54;19950;-81
2023/03/06 17:16:21;;;;;;;;;;;;;;;4.65;64.98;98867.13;1087548;54;19950;-80
2023/03/06 17:17:22;;;;;;;;;;;;;;;4.71;64.59;98868.41;1087651;54;19942;-80
2023/03/06 17:18:32;;;;;;;;;;;;;;;4.66;64.97;98869.66;1087858;54;20602;-81
2023/03/06 17:19:33;;;;;;;;;;;;;;;4.72;64.70;98870.94;1087549;54;20650;-79
2023/03/06 17:20:37;;;;;;;;;;;;;;;4.64;64.84;98868.09;1087321;54;19930;-78
2023/03/06 17:21:41;;;;;;;;;;;;;;;4.59;64.91;98871.16;1087564;54;19951;-78
2023/03/06 17:22:45;;;;;;;;;;;;;;;4.61;65.07;98873.69;1086202;54;20823;-79
2023/03/06 17:23:49;;;;;;;;;;;;;;;4.62;64.88;98864.78;1085311;54;19977;-79
2023/03/06 17:24:51;;;;;;;;;;;;;;;4.67;64.55;98867.84;1085128;54;19947;-79
2023/03/06 17:26:03;;;;;;;;;;;;;;;4.73;64.66;98862.00;1085006;54;19947;-80
2023/03/06 17:27:04;;;;;;;;;;;;;;;4.74;64.56;98870.78;1084635;54;19954;-79
2023/03/06 17:28:08;;;;;;;;;;;;;;;4.77;64.59;98867.88;1084561;54;19979;-78
2023/03/06 17:29:10;;;;;;;;;;;;;;;4.72;64.37;98868.28;1084449;54;19989;-79
2023/03/06 17:30:14;;;;;;;;;;;;;;;4.64;64.67;98871.59;1084737;54;19950;-80
2023/03/06 17:31:20;;;;;;;;;;;;;;;4.61;64.79;98873.69;1086083;39;20244;-80
2023/03/06 17:32:21;;;;;;;;;;;;;;;4.62;64.75;98870.91;1085141;54;19950;-79
2023/03/06 17:33:25;;;;;;;;;;;;;;;4.57;64.89;98875.78;1084780;54;19951;-79
2023/03/06 17:34:29;;;;;;;;;;;;;;;4.55;64.89;98884.78;1085828;54;19965;-79
2023/03/06 17:35:30;;;;;;;;;;;;;;;4.58;64.95;98881.88;1085949;54;19956;-79
2023/03/06 17:36:34;;;;;;;;;;;;;;;4.61;65.00;98884.28;1087621;54;20726;-79
2023/03/06 17:37:35;;;;;;;;;;;;;;;4.64;64.93;98884.00;1087240;54;19942;-80
2023/03/06 17:38:39;;;;;;;;;;;;;;;4.58;64.81;98884.53;1087566;54;19950;-78
2023/03/06 17:39:40;;;;;;;;;;;;;;;4.60;64.81;98890.53;1087557;54;19942;-79
2023/03/06 17:40:44;;;;;;;;;;;;;;;4.65;64.68;98883.88;1088288;39;20612;-78
2023/03/06 17:41:51;;;;;;;;;;;;;;;4.60;65.17;98893.19;1087544;54;19953;-77
2023/03/06 17:42:52;;;;;;;;;;;;;;;4.63;65.32;98885.00;1087637;54;19950;-77
2023/03/06 17:43:57;;;;;;;;;;;;;;;4.52;65.47;98892.06;1087610;54;19949;-78
2023/03/06 17:44:58;;;;;;;;;;;;;;;4.56;65.47;98887.34;1087568;54;19942;-78
2023/03/06 17:46:03;;;;;;;;;;;;;;;4.49;65.69;98886.16;1087548;54;19942;-78
2023/03/06 17:47:07;;;;;;;;;;;;;;;4.49;65.59;98897.59;1087523;54;19942;-78
2023/03/06 17:48:09;;;;;;;;;;;;;;;4.52;65.42;98892.06;1087537;54;19942;-79
2023/03/06 17:49:12;;;;;;;;;;;;;;;4.53;65.44;98891.06;1087571;54;19954;-78
2023/03/06 17:50:16;;;;;;;;;;;;;;;4.57;65.54;98893.44;1087479;54;19973;-78
2023/03/06 17:51:20;;;;;;;;;;;;;;;4.53;65.55;98892.88;1087571;54;19943;-78
2023/03/06 17:52:21;;;;;;;;;;;;;;;4.63;65.41;98893.75;1087566;54;20980;-78